sensor_id;sensor_type;location;lat;lon;timestamp;temperature;humidity
46041;DHT22;31779;49.124;19.190;2022-07-18T00:00:08;7.80;99.90
46041;DHT22;31779;49.124;19.190;2022-07-18T00:02:37;7.70;99.90
46041;DHT22;31779;49.124;19.190;2022-07-18T00:05:05;7.70;99.90
46041;DHT22;31779;49.124;19.190;2022-07-18T00:07:33;7.70;99.90
46041;DHT22;31779;49.124;19.190;2022-07-18T00:10:01;7.70;99.90
46041;DHT22;31779;49.124;19.190;2022-07-18T00:12:30;7.60;99.90
46041;DHT22;31779;49.124;19.190;2022-07-18T00:14:58;7.60;99.90
46041;DHT22;31779;49.124;19.190;2022-07-18T00:17:26;7.60;99.90
46041;DHT22;31779;49.124;19.190;2022-07-18T00:19:54;7.50;99.90
46041;DHT22;31779;49.124;19.190;2022-07-18T00:22:22;7.50;99.90
46041;DHT22;31779;49.124;19.190;2022-07-18T00:24:50;7.50;99.90
46041;DHT22;31779;49.124;19.190;2022-07-18T00:27:18;7.50;99.90
46041;DHT22;31779;49.124;19.190;2022-07-18T00:29:48;7.40;99.90
46041;DHT22;31779;49.124;19.190;2022-07-18T00:32:16;7.40;99.90
46041;DHT22;31779;49.124;19.190;2022-07-18T00:34:44;7.40;99.90
46041;DHT22;31779;49.124;19.190;2022-07-18T00:37:11;7.30;99.90
46041;DHT22;31779;49.124;19.190;2022-07-18T00:39:41;7.30;99.90
46041;DHT22;31779;49.124;19.190;2022-07-18T00:42:08;7.30;99.90
46041;DHT22;31779;49.124;19.190;2022-07-18T00:44:38;7.30;99.90
46041;DHT22;31779;49.124;19.190;2022-07-18T00:47:06;7.30;99.90
46041;DHT22;31779;49.124;19.190;2022-07-18T00:49:33;7.30;99.90
46041;DHT22;31779;49.124;19.190;2022-07-18T00:52:28;7.30;99.90
46041;DHT22;31779;49.124;19.190;2022-07-18T00:55:06;7.20;99.90
46041;DHT22;31779;49.124;19.190;2022-07-18T00:58:01;7.20;99.90
46041;DHT22;31779;49.124;19.190;2022-07-18T01:06:12;7.20;99.90
46041;DHT22;31779;49.124;19.190;2022-07-18T01:08:42;7.10;99.90
46041;DHT22;31779;49.124;19.190;2022-07-18T01:11:10;7.10;99.90
46041;DHT22;31779;49.124;19.190;2022-07-18T01:13:39;7.10;99.90
46041;DHT22;31779;49.124;19.190;2022-07-18T01:16:07;7.10;99.90
46041;DHT22;31779;49.124;19.190;2022-07-18T01:18:35;7.10;99.90
46041;DHT22;31779;49.124;19.190;2022-07-18T01:21:03;7.00;99.90
46041;DHT22;31779;49.124;19.190;2022-07-18T01:23:31;7.00;99.90
46041;DHT22;31779;49.124;19.190;2022-07-18T01:25:59;7.00;99.90
46041;DHT22;31779;49.124;19.190;2022-07-18T01:28:27;7.00;99.90
46041;DHT22;31779;49.124;19.190;2022-07-18T01:30:55;7.00;99.90
46041;DHT22;31779;49.124;19.190;2022-07-18T01:33:23;7.00;99.90
46041;DHT22;31779;49.124;19.190;2022-07-18T01:35:52;7.00;99.90
46041;DHT22;31779;49.124;19.190;2022-07-18T01:38:19;7.00;99.90
46041;DHT22;31779;49.124;19.190;2022-07-18T01:40:48;7.00;99.90
46041;DHT22;31779;49.124;19.190;2022-07-18T01:43:23;7.00;99.90
46041;DHT22;31779;49.124;19.190;2022-07-18T01:45:52;6.90;99.90
46041;DHT22;31779;49.124;19.190;2022-07-18T01:48:20;6.80;99.90
46041;DHT22;31779;49.124;19.190;2022-07-18T01:50:51;6.90;99.90
46041;DHT22;31779;49.124;19.190;2022-07-18T01:53:19;6.90;99.90
46041;DHT22;31779;49.124;19.190;2022-07-18T01:55:48;6.90;99.90
46041;DHT22;31779;49.124;19.190;2022-07-18T01:58:16;6.90;99.90
46041;DHT22;31779;49.124;19.190;2022-07-18T02:00:44;6.90;99.90
46041;DHT22;31779;49.124;19.190;2022-07-18T02:03:12;6.80;99.90
46041;DHT22;31779;49.124;19.190;2022-07-18T02:05:39;6.80;99.90
46041;DHT22;31779;49.124;19.190;2022-07-18T02:08:08;6.70;99.90
46041;DHT22;31779;49.124;19.190;2022-07-18T02:10:36;6.80;99.90
46041;DHT22;31779;49.124;19.190;2022-07-18T02:13:05;6.80;99.90
46041;DHT22;31779;49.124;19.190;2022-07-18T02:15:32;6.80;99.90
46041;DHT22;31779;49.124;19.190;2022-07-18T02:18:04;6.70;99.90
46041;DHT22;31779;49.124;19.190;2022-07-18T02:20:32;6.70;99.90
46041;DHT22;31779;49.124;19.190;2022-07-18T02:23:00;6.70;99.90
46041;DHT22;31779;49.124;19.190;2022-07-18T02:25:29;6.70;99.90
46041;DHT22;31779;49.124;19.190;2022-07-18T02:27:57;6.70;99.90
46041;DHT22;31779;49.124;19.190;2022-07-18T02:30:25;6.70;99.90
46041;DHT22;31779;49.124;19.190;2022-07-18T02:33:00;6.60;99.90
46041;DHT22;31779;49.124;19.190;2022-07-18T02:35:27;6.60;99.90
46041;DHT22;31779;49.124;19.190;2022-07-18T02:37:55;6.70;99.90
46041;DHT22;31779;49.124;19.190;2022-07-18T02:40:23;6.70;99.90
46041;DHT22;31779;49.124;19.190;2022-07-18T02:42:51;6.60;99.90
46041;DHT22;31779;49.124;19.190;2022-07-18T02:45:19;6.60;99.90
46041;DHT22;31779;49.124;19.190;2022-07-18T02:47:47;6.60;99.90
46041;DHT22;31779;49.124;19.190;2022-07-18T02:50:15;6.60;99.90
46041;DHT22;31779;49.124;19.190;2022-07-18T02:52:44;6.70;99.90
46041;DHT22;31779;49.124;19.190;2022-07-18T02:55:13;6.60;99.90
46041;DHT22;31779;49.124;19.190;2022-07-18T02:57:42;6.60;99.90
46041;DHT22;31779;49.124;19.190;2022-07-18T03:00:12;6.60;99.90
46041;DHT22;31779;49.124;19.190;2022-07-18T03:02:41;6.50;99.90
46041;DHT22;31779;49.124;19.190;2022-07-18T03:05:10;6.50;99.90
46041;DHT22;31779;49.124;19.190;2022-07-18T03:07:38;6.50;99.90
46041;DHT22;31779;49.124;19.190;2022-07-18T03:10:06;6.50;99.90
46041;DHT22;31779;49.124;19.190;2022-07-18T03:12:34;6.40;99.90
46041;DHT22;31779;49.124;19.190;2022-07-18T03:15:03;6.50;99.90
46041;DHT22;31779;49.124;19.190;2022-07-18T03:17:31;6.50;99.90
46041;DHT22;31779;49.124;19.190;2022-07-18T03:19:58;6.40;99.90
46041;DHT22;31779;49.124;19.190;2022-07-18T03:22:26;6.50;99.90
46041;DHT22;31779;49.124;19.190;2022-07-18T03:24:54;6.50;99.90
46041;DHT22;31779;49.124;19.190;2022-07-18T03:27:22;6.50;99.90
46041;DHT22;31779;49.124;19.190;2022-07-18T03:29:50;6.60;99.90
46041;DHT22;31779;49.124;19.190;2022-07-18T03:32:18;6.50;99.90
46041;DHT22;31779;49.124;19.190;2022-07-18T03:34:46;6.60;99.90
46041;DHT22;31779;49.124;19.190;2022-07-18T03:37:15;6.70;99.90
46041;DHT22;31779;49.124;19.190;2022-07-18T03:39:42;6.80;99.90
46041;DHT22;31779;49.124;19.190;2022-07-18T03:42:11;6.80;99.90
46041;DHT22;31779;49.124;19.190;2022-07-18T03:44:40;6.80;99.90
46041;DHT22;31779;49.124;19.190;2022-07-18T03:47:08;6.70;99.90
46041;DHT22;31779;49.124;19.190;2022-07-18T03:49:36;6.80;99.90
46041;DHT22;31779;49.124;19.190;2022-07-18T03:52:04;6.80;99.90
46041;DHT22;31779;49.124;19.190;2022-07-18T03:54:32;6.90;99.90
46041;DHT22;31779;49.124;19.190;2022-07-18T03:57:00;7.00;99.90
46041;DHT22;31779;49.124;19.190;2022-07-18T03:59:27;7.00;99.90
46041;DHT22;31779;49.124;19.190;2022-07-18T04:01:55;7.10;99.90
46041;DHT22;31779;49.124;19.190;2022-07-18T04:04:24;7.20;99.90
46041;DHT22;31779;49.124;19.190;2022-07-18T04:06:52;7.30;99.90
46041;DHT22;31779;49.124;19.190;2022-07-18T04:09:19;7.40;99.90
46041;DHT22;31779;49.124;19.190;2022-07-18T04:11:47;7.60;99.90
46041;DHT22;31779;49.124;19.190;2022-07-18T04:14:15;7.70;99.90
46041;DHT22;31779;49.124;19.190;2022-07-18T04:16:43;7.80;99.90
46041;DHT22;31779;49.124;19.190;2022-07-18T04:19:11;7.80;99.90
46041;DHT22;31779;49.124;19.190;2022-07-18T04:21:39;8.00;99.90
46041;DHT22;31779;49.124;19.190;2022-07-18T04:24:07;8.00;99.90
46041;DHT22;31779;49.124;19.190;2022-07-18T04:26:35;8.00;99.90
46041;DHT22;31779;49.124;19.190;2022-07-18T04:29:03;8.20;99.90
46041;DHT22;31779;49.124;19.190;2022-07-18T04:31:31;8.30;99.90
46041;DHT22;31779;49.124;19.190;2022-07-18T04:33:59;8.50;99.90
46041;DHT22;31779;49.124;19.190;2022-07-18T04:36:27;8.50;99.90
46041;DHT22;31779;49.124;19.190;2022-07-18T04:38:55;8.80;99.90
46041;DHT22;31779;49.124;19.190;2022-07-18T04:41:23;8.90;99.90
46041;DHT22;31779;49.124;19.190;2022-07-18T04:43:52;9.10;99.90
46041;DHT22;31779;49.124;19.190;2022-07-18T04:46:20;9.20;99.90
46041;DHT22;31779;49.124;19.190;2022-07-18T04:48:48;9.40;99.90
46041;DHT22;31779;49.124;19.190;2022-07-18T04:51:16;9.50;99.90
46041;DHT22;31779;49.124;19.190;2022-07-18T04:53:44;9.70;99.90
46041;DHT22;31779;49.124;19.190;2022-07-18T04:56:12;9.80;99.90
46041;DHT22;31779;49.124;19.190;2022-07-18T04:58:40;9.90;99.90
46041;DHT22;31779;49.124;19.190;2022-07-18T05:01:08;10.00;99.90
46041;DHT22;31779;49.124;19.190;2022-07-18T05:03:36;10.10;99.90
46041;DHT22;31779;49.124;19.190;2022-07-18T05:06:04;10.20;99.90
46041;DHT22;31779;49.124;19.190;2022-07-18T05:08:32;10.30;99.90
46041;DHT22;31779;49.124;19.190;2022-07-18T05:11:00;10.40;99.90
46041;DHT22;31779;49.124;19.190;2022-07-18T05:13:28;10.50;99.90
46041;DHT22;31779;49.124;19.190;2022-07-18T05:15:56;10.50;99.90
46041;DHT22;31779;49.124;19.190;2022-07-18T05:18:24;10.60;99.90
46041;DHT22;31779;49.124;19.190;2022-07-18T05:20:51;10.80;99.90
46041;DHT22;31779;49.124;19.190;2022-07-18T05:23:19;11.00;99.90
46041;DHT22;31779;49.124;19.190;2022-07-18T05:25:47;11.10;99.90
46041;DHT22;31779;49.124;19.190;2022-07-18T05:28:15;11.20;99.90
46041;DHT22;31779;49.124;19.190;2022-07-18T05:30:43;11.30;99.90
46041;DHT22;31779;49.124;19.190;2022-07-18T05:33:10;11.50;99.90
46041;DHT22;31779;49.124;19.190;2022-07-18T05:35:39;11.70;99.90
46041;DHT22;31779;49.124;19.190;2022-07-18T05:38:08;11.90;99.90
46041;DHT22;31779;49.124;19.190;2022-07-18T05:40:35;12.00;99.90
46041;DHT22;31779;49.124;19.190;2022-07-18T05:43:04;12.20;99.90
46041;DHT22;31779;49.124;19.190;2022-07-18T05:45:32;12.40;99.90
46041;DHT22;31779;49.124;19.190;2022-07-18T05:48:00;12.50;99.90
46041;DHT22;31779;49.124;19.190;2022-07-18T05:50:28;12.70;99.90
46041;DHT22;31779;49.124;19.190;2022-07-18T05:52:56;12.90;99.90
46041;DHT22;31779;49.124;19.190;2022-07-18T05:55:25;12.90;99.90
46041;DHT22;31779;49.124;19.190;2022-07-18T05:57:53;13.10;99.90
46041;DHT22;31779;49.124;19.190;2022-07-18T06:00:21;13.00;99.90
46041;DHT22;31779;49.124;19.190;2022-07-18T06:02:50;13.20;99.90
46041;DHT22;31779;49.124;19.190;2022-07-18T06:05:18;13.30;99.90
46041;DHT22;31779;49.124;19.190;2022-07-18T06:07:52;13.30;99.90
46041;DHT22;31779;49.124;19.190;2022-07-18T06:10:23;13.30;99.90
46041;DHT22;31779;49.124;19.190;2022-07-18T06:12:52;13.40;99.90
46041;DHT22;31779;49.124;19.190;2022-07-18T06:15:20;13.20;99.90
46041;DHT22;31779;49.124;19.190;2022-07-18T06:17:48;13.20;99.90
46041;DHT22;31779;49.124;19.190;2022-07-18T06:20:17;13.40;99.90
46041;DHT22;31779;49.124;19.190;2022-07-18T06:22:45;13.50;99.90
46041;DHT22;31779;49.124;19.190;2022-07-18T06:25:13;13.60;99.90
46041;DHT22;31779;49.124;19.190;2022-07-18T06:27:41;13.70;99.90
46041;DHT22;31779;49.124;19.190;2022-07-18T06:30:09;13.90;99.90
46041;DHT22;31779;49.124;19.190;2022-07-18T06:32:38;14.10;99.90
46041;DHT22;31779;49.124;19.190;2022-07-18T06:35:07;14.20;99.90
46041;DHT22;31779;49.124;19.190;2022-07-18T06:37:36;14.30;99.90
46041;DHT22;31779;49.124;19.190;2022-07-18T06:40:04;14.60;99.90
46041;DHT22;31779;49.124;19.190;2022-07-18T06:42:33;14.80;99.90
46041;DHT22;31779;49.124;19.190;2022-07-18T06:45:02;15.00;99.90
46041;DHT22;31779;49.124;19.190;2022-07-18T06:47:37;15.20;99.90
46041;DHT22;31779;49.124;19.190;2022-07-18T06:50:06;15.40;99.90
46041;DHT22;31779;49.124;19.190;2022-07-18T06:52:34;15.50;99.90
46041;DHT22;31779;49.124;19.190;2022-07-18T06:55:03;15.60;99.90
46041;DHT22;31779;49.124;19.190;2022-07-18T06:57:31;15.70;99.90
46041;DHT22;31779;49.124;19.190;2022-07-18T06:59:59;16.00;99.90
46041;DHT22;31779;49.124;19.190;2022-07-18T07:02:28;16.30;99.90
46041;DHT22;31779;49.124;19.190;2022-07-18T07:04:57;16.30;99.90
46041;DHT22;31779;49.124;19.190;2022-07-18T07:07:25;16.30;99.90
46041;DHT22;31779;49.124;19.190;2022-07-18T07:09:53;16.40;98.90
46041;DHT22;31779;49.124;19.190;2022-07-18T07:12:21;16.50;99.90
46041;DHT22;31779;49.124;19.190;2022-07-18T07:14:49;17.00;99.90
46041;DHT22;31779;49.124;19.190;2022-07-18T07:17:18;17.00;99.90
46041;DHT22;31779;49.124;19.190;2022-07-18T07:19:46;17.20;99.90
46041;DHT22;31779;49.124;19.190;2022-07-18T07:22:14;17.10;96.10
46041;DHT22;31779;49.124;19.190;2022-07-18T07:24:44;17.20;99.90
46041;DHT22;31779;49.124;19.190;2022-07-18T07:27:13;17.50;98.20
46041;DHT22;31779;49.124;19.190;2022-07-18T07:29:42;17.60;97.70
46041;DHT22;31779;49.124;19.190;2022-07-18T07:32:11;18.20;92.90
46041;DHT22;31779;49.124;19.190;2022-07-18T07:34:39;19.60;92.70
46041;DHT22;31779;49.124;19.190;2022-07-18T07:37:08;19.40;93.40
46041;DHT22;31779;49.124;19.190;2022-07-18T07:39:36;19.30;92.40
46041;DHT22;31779;49.124;19.190;2022-07-18T07:42:04;19.20;93.20
46041;DHT22;31779;49.124;19.190;2022-07-18T07:44:32;19.00;88.10
46041;DHT22;31779;49.124;19.190;2022-07-18T07:47:00;18.70;93.90
46041;DHT22;31779;49.124;19.190;2022-07-18T07:49:28;18.70;95.10
46041;DHT22;31779;49.124;19.190;2022-07-18T07:52:06;18.80;93.40
46041;DHT22;31779;49.124;19.190;2022-07-18T07:54:34;19.40;92.80
46041;DHT22;31779;49.124;19.190;2022-07-18T07:57:04;19.70;91.00
46041;DHT22;31779;49.124;19.190;2022-07-18T07:59:33;19.80;85.30
46041;DHT22;31779;49.124;19.190;2022-07-18T08:02:03;20.20;89.60
46041;DHT22;31779;49.124;19.190;2022-07-18T08:04:33;20.20;88.40
46041;DHT22;31779;49.124;19.190;2022-07-18T08:07:04;20.50;87.30
46041;DHT22;31779;49.124;19.190;2022-07-18T08:09:32;20.70;89.30
46041;DHT22;31779;49.124;19.190;2022-07-18T08:12:03;20.70;90.80
46041;DHT22;31779;49.124;19.190;2022-07-18T08:14:34;20.70;86.70
46041;DHT22;31779;49.124;19.190;2022-07-18T08:17:06;20.80;79.70
46041;DHT22;31779;49.124;19.190;2022-07-18T08:19:35;21.20;84.40
46041;DHT22;31779;49.124;19.190;2022-07-18T08:22:04;22.00;85.30
46041;DHT22;31779;49.124;19.190;2022-07-18T08:24:36;22.00;80.50
46041;DHT22;31779;49.124;19.190;2022-07-18T08:27:05;22.70;75.20
46041;DHT22;31779;49.124;19.190;2022-07-18T08:29:33;23.80;70.30
46041;DHT22;31779;49.124;19.190;2022-07-18T08:32:22;24.60;72.20
46041;DHT22;31779;49.124;19.190;2022-07-18T08:34:53;27.10;62.40
46041;DHT22;31779;49.124;19.190;2022-07-18T08:37:24;32.10;49.30
46041;DHT22;31779;49.124;19.190;2022-07-18T08:39:53;35.50;42.60
46041;DHT22;31779;49.124;19.190;2022-07-18T08:42:26;35.20;41.70
46041;DHT22;31779;49.124;19.190;2022-07-18T08:44:56;36.60;37.70
46041;DHT22;31779;49.124;19.190;2022-07-18T08:47:28;38.40;37.30
46041;DHT22;31779;49.124;19.190;2022-07-18T08:49:58;38.50;36.00
46041;DHT22;31779;49.124;19.190;2022-07-18T08:52:26;41.30;31.90
46041;DHT22;31779;49.124;19.190;2022-07-18T08:55:16;37.50;34.40
46041;DHT22;31779;49.124;19.190;2022-07-18T08:57:55;41.50;35.80
46041;DHT22;31779;49.124;19.190;2022-07-18T09:00:23;43.30;33.30
46041;DHT22;31779;49.124;19.190;2022-07-18T09:03:03;42.70;29.80
46041;DHT22;31779;49.124;19.190;2022-07-18T09:05:32;41.40;29.60
46041;DHT22;31779;49.124;19.190;2022-07-18T09:08:19;40.20;29.80
46041;DHT22;31779;49.124;19.190;2022-07-18T09:10:55;38.40;30.00
46041;DHT22;31779;49.124;19.190;2022-07-18T09:13:44;36.80;34.50
46041;DHT22;31779;49.124;19.190;2022-07-18T09:16:13;36.20;29.90
46041;DHT22;31779;49.124;19.190;2022-07-18T09:18:48;34.60;32.90
46041;DHT22;31779;49.124;19.190;2022-07-18T09:21:19;33.20;31.20
46041;DHT22;31779;49.124;19.190;2022-07-18T09:23:50;33.20;31.20
46041;DHT22;31779;49.124;19.190;2022-07-18T09:26:53;32.70;32.00
46041;DHT22;31779;49.124;19.190;2022-07-18T09:29:27;31.60;32.80
46041;DHT22;31779;49.124;19.190;2022-07-18T09:31:58;31.20;33.10
46041;DHT22;31779;49.124;19.190;2022-07-18T09:34:34;30.60;33.50
46041;DHT22;31779;49.124;19.190;2022-07-18T09:37:04;30.20;36.70
46041;DHT22;31779;49.124;19.190;2022-07-18T09:39:34;30.20;36.80
46041;DHT22;31779;49.124;19.190;2022-07-18T09:42:18;29.50;35.30
46041;DHT22;31779;49.124;19.190;2022-07-18T09:44:59;29.00;37.60
46041;DHT22;31779;49.124;19.190;2022-07-18T09:47:27;28.20;36.10
46041;DHT22;31779;49.124;19.190;2022-07-18T09:49:55;28.20;40.80
46041;DHT22;31779;49.124;19.190;2022-07-18T09:52:23;28.30;38.30
46041;DHT22;31779;49.124;19.190;2022-07-18T09:55:03;27.50;38.70
46041;DHT22;31779;49.124;19.190;2022-07-18T09:57:33;27.20;38.20
46041;DHT22;31779;49.124;19.190;2022-07-18T10:00:02;27.70;39.60
46041;DHT22;31779;49.124;19.190;2022-07-18T10:02:38;27.50;35.50
46041;DHT22;31779;49.124;19.190;2022-07-18T10:05:07;27.10;34.90
46041;DHT22;31779;49.124;19.190;2022-07-18T10:07:38;26.70;41.40
46041;DHT22;31779;49.124;19.190;2022-07-18T10:10:07;26.70;40.00
46041;DHT22;31779;49.124;19.190;2022-07-18T10:12:35;26.00;38.00
46041;DHT22;31779;49.124;19.190;2022-07-18T10:15:10;26.00;38.70
46041;DHT22;31779;49.124;19.190;2022-07-18T10:17:38;26.10;40.50
46041;DHT22;31779;49.124;19.190;2022-07-18T10:20:07;26.20;38.70
46041;DHT22;31779;49.124;19.190;2022-07-18T10:22:40;26.10;37.60
46041;DHT22;31779;49.124;19.190;2022-07-18T10:25:13;26.00;41.40
46041;DHT22;31779;49.124;19.190;2022-07-18T10:30:35;26.30;40.00
46041;DHT22;31779;49.124;19.190;2022-07-18T10:33:35;26.60;39.20
46041;DHT22;31779;49.124;19.190;2022-07-18T10:36:04;26.40;38.80
46041;DHT22;31779;49.124;19.190;2022-07-18T10:39:03;26.10;38.70
46041;DHT22;31779;49.124;19.190;2022-07-18T10:41:27;26.10;40.20
46041;DHT22;31779;49.124;19.190;2022-07-18T10:43:56;25.70;38.80
46041;DHT22;31779;49.124;19.190;2022-07-18T10:46:24;25.50;39.90
46041;DHT22;31779;49.124;19.190;2022-07-18T10:48:54;25.60;42.00
46041;DHT22;31779;49.124;19.190;2022-07-18T10:51:29;26.00;41.00
46041;DHT22;31779;49.124;19.190;2022-07-18T10:59:20;26.30;42.90
46041;DHT22;31779;49.124;19.190;2022-07-18T11:01:52;26.80;42.00
46041;DHT22;31779;49.124;19.190;2022-07-18T11:04:30;26.70;39.20
46041;DHT22;31779;49.124;19.190;2022-07-18T11:07:10;26.70;38.80
46041;DHT22;31779;49.124;19.190;2022-07-18T11:09:47;26.40;37.50
46041;DHT22;31779;49.124;19.190;2022-07-18T11:12:31;26.30;37.80
46041;DHT22;31779;49.124;19.190;2022-07-18T11:15:09;26.60;40.90
46041;DHT22;31779;49.124;19.190;2022-07-18T11:23:04;26.50;41.10
46041;DHT22;31779;49.124;19.190;2022-07-18T11:25:34;26.90;41.40
46041;DHT22;31779;49.124;19.190;2022-07-18T11:28:26;27.20;41.80
46041;DHT22;31779;49.124;19.190;2022-07-18T11:31:14;27.20;37.40
46041;DHT22;31779;49.124;19.190;2022-07-18T11:33:48;27.40;40.30
46041;DHT22;31779;49.124;19.190;2022-07-18T11:36:19;27.10;39.70
46041;DHT22;31779;49.124;19.190;2022-07-18T11:38:52;26.70;38.30
46041;DHT22;31779;49.124;19.190;2022-07-18T11:41:23;27.00;39.40
46041;DHT22;31779;49.124;19.190;2022-07-18T11:43:52;26.90;43.30
46041;DHT22;31779;49.124;19.190;2022-07-18T11:46:25;27.00;38.50
46041;DHT22;31779;49.124;19.190;2022-07-18T11:48:59;27.10;39.90
46041;DHT22;31779;49.124;19.190;2022-07-18T11:51:34;27.00;39.20
46041;DHT22;31779;49.124;19.190;2022-07-18T11:54:04;27.00;43.50
46041;DHT22;31779;49.124;19.190;2022-07-18T11:56:33;26.80;44.40
46041;DHT22;31779;49.124;19.190;2022-07-18T11:59:12;26.90;38.80
46041;DHT22;31779;49.124;19.190;2022-07-18T12:01:41;26.20;38.40
46041;DHT22;31779;49.124;19.190;2022-07-18T12:04:18;26.60;39.50
46041;DHT22;31779;49.124;19.190;2022-07-18T12:07:20;26.30;38.90
46041;DHT22;31779;49.124;19.190;2022-07-18T12:09:51;26.30;43.80
46041;DHT22;31779;49.124;19.190;2022-07-18T12:12:21;26.70;38.10
46041;DHT22;31779;49.124;19.190;2022-07-18T12:14:58;26.50;37.60
46041;DHT22;31779;49.124;19.190;2022-07-18T12:17:27;26.70;41.60
46041;DHT22;31779;49.124;19.190;2022-07-18T12:20:17;26.80;40.00
46041;DHT22;31779;49.124;19.190;2022-07-18T12:23:08;26.50;39.00
46041;DHT22;31779;49.124;19.190;2022-07-18T12:25:43;26.50;38.90
46041;DHT22;31779;49.124;19.190;2022-07-18T12:28:17;26.30;38.20
46041;DHT22;31779;49.124;19.190;2022-07-18T12:30:45;26.30;37.60
46041;DHT22;31779;49.124;19.190;2022-07-18T12:33:14;26.30;38.30
46041;DHT22;31779;49.124;19.190;2022-07-18T12:35:43;26.50;39.00
46041;DHT22;31779;49.124;19.190;2022-07-18T12:38:13;26.50;37.40
46041;DHT22;31779;49.124;19.190;2022-07-18T12:40:55;26.40;39.30
46041;DHT22;31779;49.124;19.190;2022-07-18T12:43:36;26.50;37.60
46041;DHT22;31779;49.124;19.190;2022-07-18T12:46:10;26.10;39.70
46041;DHT22;31779;49.124;19.190;2022-07-18T12:48:38;26.40;38.60
46041;DHT22;31779;49.124;19.190;2022-07-18T12:51:10;26.30;39.30
46041;DHT22;31779;49.124;19.190;2022-07-18T12:53:41;26.30;37.90
46041;DHT22;31779;49.124;19.190;2022-07-18T12:56:10;26.70;40.40
46041;DHT22;31779;49.124;19.190;2022-07-18T12:58:39;26.70;41.30
46041;DHT22;31779;49.124;19.190;2022-07-18T13:01:06;26.40;37.80
46041;DHT22;31779;49.124;19.190;2022-07-18T13:03:35;26.50;40.10
46041;DHT22;31779;49.124;19.190;2022-07-18T13:06:04;26.40;38.90
46041;DHT22;31779;49.124;19.190;2022-07-18T13:08:32;26.20;41.00
46041;DHT22;31779;49.124;19.190;2022-07-18T13:11:00;26.00;38.80
46041;DHT22;31779;49.124;19.190;2022-07-18T13:13:28;26.20;40.50
46041;DHT22;31779;49.124;19.190;2022-07-18T13:15:56;26.30;39.50
46041;DHT22;31779;49.124;19.190;2022-07-18T13:18:24;26.40;41.50
46041;DHT22;31779;49.124;19.190;2022-07-18T13:20:52;26.50;39.50
46041;DHT22;31779;49.124;19.190;2022-07-18T13:23:20;26.20;39.40
46041;DHT22;31779;49.124;19.190;2022-07-18T13:25:48;26.30;40.10
46041;DHT22;31779;49.124;19.190;2022-07-18T13:28:16;26.50;40.50
46041;DHT22;31779;49.124;19.190;2022-07-18T13:30:43;26.10;40.60
46041;DHT22;31779;49.124;19.190;2022-07-18T13:33:12;26.20;39.70
46041;DHT22;31779;49.124;19.190;2022-07-18T13:35:40;26.30;38.90
46041;DHT22;31779;49.124;19.190;2022-07-18T13:38:08;26.40;42.80
46041;DHT22;31779;49.124;19.190;2022-07-18T13:40:36;26.60;40.10
46041;DHT22;31779;49.124;19.190;2022-07-18T13:43:04;26.50;42.40
46041;DHT22;31779;49.124;19.190;2022-07-18T13:45:32;26.30;39.40
46041;DHT22;31779;49.124;19.190;2022-07-18T13:47:59;26.20;41.50
46041;DHT22;31779;49.124;19.190;2022-07-18T13:50:27;26.20;41.40
46041;DHT22;31779;49.124;19.190;2022-07-18T13:52:56;26.20;41.50
46041;DHT22;31779;49.124;19.190;2022-07-18T13:55:25;26.10;40.80
46041;DHT22;31779;49.124;19.190;2022-07-18T13:57:54;26.20;42.40
46041;DHT22;31779;49.124;19.190;2022-07-18T14:00:23;26.20;39.50
46041;DHT22;31779;49.124;19.190;2022-07-18T14:02:50;26.00;40.40
46041;DHT22;31779;49.124;19.190;2022-07-18T14:05:19;25.90;41.40
46041;DHT22;31779;49.124;19.190;2022-07-18T14:07:47;25.90;40.30
46041;DHT22;31779;49.124;19.190;2022-07-18T14:10:15;25.90;41.40
46041;DHT22;31779;49.124;19.190;2022-07-18T14:12:44;25.80;42.40
46041;DHT22;31779;49.124;19.190;2022-07-18T14:15:12;25.80;41.50
46041;DHT22;31779;49.124;19.190;2022-07-18T14:17:41;26.10;42.90
46041;DHT22;31779;49.124;19.190;2022-07-18T14:20:10;26.10;41.10
46041;DHT22;31779;49.124;19.190;2022-07-18T14:22:39;25.90;42.60
46041;DHT22;31779;49.124;19.190;2022-07-18T14:25:09;25.60;41.30
46041;DHT22;31779;49.124;19.190;2022-07-18T14:27:38;25.80;41.10
46041;DHT22;31779;49.124;19.190;2022-07-18T14:30:09;25.80;40.70
46041;DHT22;31779;49.124;19.190;2022-07-18T14:32:38;26.00;41.50
46041;DHT22;31779;49.124;19.190;2022-07-18T14:35:07;25.90;41.10
46041;DHT22;31779;49.124;19.190;2022-07-18T14:37:37;25.60;40.70
46041;DHT22;31779;49.124;19.190;2022-07-18T14:40:06;25.80;42.40
46041;DHT22;31779;49.124;19.190;2022-07-18T14:42:34;25.90;40.70
46041;DHT22;31779;49.124;19.190;2022-07-18T14:45:03;25.80;41.40
46041;DHT22;31779;49.124;19.190;2022-07-18T14:47:32;25.70;40.50
46041;DHT22;31779;49.124;19.190;2022-07-18T14:50:03;25.60;41.00
46041;DHT22;31779;49.124;19.190;2022-07-18T14:52:33;25.50;39.70
46041;DHT22;31779;49.124;19.190;2022-07-18T14:55:02;25.50;40.70
46041;DHT22;31779;49.124;19.190;2022-07-18T14:57:31;25.50;42.40
46041;DHT22;31779;49.124;19.190;2022-07-18T14:59:59;25.50;50.00
46041;DHT22;31779;49.124;19.190;2022-07-18T15:02:26;25.50;42.70
46041;DHT22;31779;49.124;19.190;2022-07-18T15:04:54;25.20;38.80
46041;DHT22;31779;49.124;19.190;2022-07-18T15:07:22;25.20;43.90
46041;DHT22;31779;49.124;19.190;2022-07-18T15:09:50;25.20;42.50
46041;DHT22;31779;49.124;19.190;2022-07-18T15:12:18;25.20;43.20
46041;DHT22;31779;49.124;19.190;2022-07-18T15:14:46;25.10;44.20
46041;DHT22;31779;49.124;19.190;2022-07-18T15:17:14;25.00;43.40
46041;DHT22;31779;49.124;19.190;2022-07-18T15:19:42;24.90;43.00
46041;DHT22;31779;49.124;19.190;2022-07-18T15:22:10;24.90;44.30
46041;DHT22;31779;49.124;19.190;2022-07-18T15:24:38;24.90;46.70
46041;DHT22;31779;49.124;19.190;2022-07-18T15:27:06;24.80;44.10
46041;DHT22;31779;49.124;19.190;2022-07-18T15:29:33;24.50;49.90
46041;DHT22;31779;49.124;19.190;2022-07-18T15:32:01;24.20;51.30
46041;DHT22;31779;49.124;19.190;2022-07-18T15:34:36;23.90;49.90
46041;DHT22;31779;49.124;19.190;2022-07-18T15:37:05;23.80;48.10
46041;DHT22;31779;49.124;19.190;2022-07-18T15:39:33;23.60;48.50
46041;DHT22;31779;49.124;19.190;2022-07-18T15:42:02;23.30;53.60
46041;DHT22;31779;49.124;19.190;2022-07-18T15:44:30;22.80;53.90
46041;DHT22;31779;49.124;19.190;2022-07-18T15:47:06;22.60;54.60
46041;DHT22;31779;49.124;19.190;2022-07-18T15:49:35;22.30;55.70
46041;DHT22;31779;49.124;19.190;2022-07-18T15:52:05;22.30;50.90
46041;DHT22;31779;49.124;19.190;2022-07-18T15:54:35;22.20;52.70
46041;DHT22;31779;49.124;19.190;2022-07-18T15:57:04;22.30;53.50